Time;durP1;ratioP1;P1;durP2;ratioP2;P2;SDS_P1;SDS_P2;PMS_P1;PMS_P2;Temp;Humidity;BMP_temperature;BMP_pressure;BME280_temperature;BME280_humidity;BME280_pressure;Samples;Min_cycle;Max_cycle;Signal;HPM_P1;HPM_P2
2021/11/14 00:01:31;;;;;;;28.10;24.57;;;6.90;96.00;;;5.47;98.68;97957.31;5069631;28;20552;-76
2021/11/14 00:04:00;;;;;;;30.57;24.83;;;6.90;96.30;;;5.53;97.73;97935.97;5038703;28;20442;-76
2021/11/14 00:06:28;;;;;;;30.00;23.40;;;7.00;94.90;;;5.61;98.43;97956.50;5054022;28;20465;-74
2021/11/14 00:08:55;;;;;;;30.33;25.10;;;6.90;95.40;;;5.57;97.92;97959.72;5059695;28;20470;-74
2021/11/14 00:11:22;;;;;;;33.00;24.00;;;6.90;95.40;;;5.66;97.63;97954.09;5049170;28;20485;-73
2021/11/14 00:13:52;;;;;;;29.67;23.53;;;7.00;94.60;;;5.62;97.04;97950.13;5071095;28;20957;-74
2021/11/14 00:16:22;;;;;;;30.97;25.00;;;7.00;94.30;;;5.46;97.71;97944.94;5048047;28;20468;-81
2021/11/14 00:18:49;;;;;;;31.33;24.77;;;7.00;94.70;;;5.44;97.81;97960.38;5072139;28;20456;-74
2021/11/14 00:21:20;;;;;;;30.80;25.33;;;6.90;95.00;;;5.41;98.51;97960.75;5069122;28;20465;-74
2021/11/14 00:23:47;;;;;;;33.70;24.00;;;6.90;96.10;;;5.46;98.50;97958.34;5068256;28;20479;-79
2021/11/14 00:26:14;;;;;;;33.80;25.40;;;6.90;96.30;;;5.50;99.16;97949.75;5068098;28;20454;-75
2021/11/14 00:28:42;;;;;;;29.30;24.33;;;6.80;96.20;;;5.34;99.11;97958.78;5055364;28;20513;-74
2021/11/14 00:31:13;;;;;;;32.50;24.33;;;6.90;95.60;;;5.46;99.07;97959.19;5064896;28;21093;-74
2021/11/14 00:33:43;;;;;;;30.50;24.70;;;6.80;97.00;;;5.55;98.88;97951.88;5073937;28;20519;-73
2021/11/14 00:36:10;;;;;;;30.60;24.53;;;6.90;96.60;;;5.66;97.37;97961.31;5055526;28;20469;-77
2021/11/14 00:38:38;;;;;;;30.67;24.20;;;7.00;95.20;;;5.66;96.77;97959.44;5072407;28;20548;-74
2021/11/14 00:41:07;;;;;;;31.17;24.30;;;7.00;94.80;;;5.51;98.24;97958.59;5055125;28;21025;-77
2021/11/14 00:43:34;;;;;;;30.93;22.70;;;6.90;94.90;;;5.50;97.70;97949.75;5074224;28;20556;-73
2021/11/14 00:46:02;;;;;;;30.63;24.20;;;6.90;95.30;;;5.62;97.91;97958.16;5069379;28;20894;-77
2021/11/14 00:48:33;;;;;;;32.83;24.40;;;7.00;94.60;;;5.44;97.07;97960.38;5069061;28;20580;-73
2021/11/14 00:51:03;;;;;;;39.67;24.30;;;6.90;94.20;;;5.47;97.34;97965.38;5057275;28;20469;-74
2021/11/14 00:53:31;;;;;;;29.90;23.83;;;6.90;94.50;;;5.46;97.63;97979.78;5074134;28;20496;-77
2021/11/14 00:55:58;;;;;;;32.50;24.80;;;6.80;94.60;;;5.37;97.99;97965.63;5072109;28;20538;-76
2021/11/14 00:58:27;;;;;;;32.27;23.10;;;6.80;95.10;;;5.34;98.39;97982.91;5066421;28;20551;-73
2021/11/14 01:00:55;;;;;;;31.10;23.50;;;6.80;94.90;;;5.37;98.47;97984.38;5059588;28;20807;-74
2021/11/14 01:03:23;;;;;;;31.57;22.70;;;6.80;95.40;;;5.37;97.64;97977.16;5061425;28;21251;-72
2021/11/14 01:05:52;;;;;;;29.83;22.73;;;6.80;95.00;;;5.40;97.83;97981.34;5062286;28;20577;-74
2021/11/14 01:08:20;;;;;;;31.23;23.70;;;6.80;95.00;;;5.38;98.51;97976.19;5069074;28;20453;-73
2021/11/14 01:10:50;;;;;;;29.73;23.07;;;6.80;95.10;;;5.34;97.65;97966.81;5049726;28;20465;-72
2021/11/14 01:13:19;;;;;;;33.07;24.73;;;6.80;95.10;;;5.42;97.92;97965.09;5046804;28;20595;-72
2021/11/14 01:15:49;;;;;;;35.57;24.50;;;6.80;95.10;;;5.42;97.15;97973.13;5059089;28;20503;-72
2021/11/14 01:18:18;;;;;;;31.60;24.13;;;6.80;94.50;;;5.42;97.36;97973.13;5074956;28;20552;-73
2021/11/14 01:20:49;;;;;;;29.50;21.93;;;6.80;94.90;;;5.45;97.29;97976.25;5060408;28;20579;-73
2021/11/14 01:23:20;;;;;;;30.20;22.80;;;6.80;94.40;;;5.44;96.97;97971.91;5060523;28;20473;-73
2021/11/14 01:25:49;;;;;;;30.20;22.60;;;6.80;94.20;;;5.29;97.69;97963.03;5078250;28;20479;-73
2021/11/14 01:28:19;;;;;;;29.27;21.73;;;6.80;94.20;;;5.34;97.96;97966.00;5077140;28;20456;-73
2021/11/14 01:30:51;;;;;;;30.10;23.40;;;6.80;95.00;;;5.49;97.52;97974.91;5059885;28;20816;-75
2021/11/14 01:33:21;;;;;;;31.80;23.23;;;6.80;94.90;;;5.42;97.36;97978.50;5059728;28;20493;-73
2021/11/14 01:35:49;;;;;;;27.30;21.97;;;6.80;94.50;;;5.40;97.88;97981.34;5058826;28;20522;-74
2021/11/14 01:38:18;;;;;;;33.63;23.00;;;6.80;94.90;;;5.48;97.90;97972.38;5059065;28;20537;-73
2021/11/14 01:40:49;;;;;;;33.20;22.33;;;6.80;95.30;;;5.47;96.78;97976.09;5058492;28;20932;-73
2021/11/14 01:43:22;;;;;;;30.20;22.40;;;6.90;93.80;;;5.49;96.95;97985.63;5073979;28;21450;-75
2021/11/14 01:45:49;;;;;;;30.80;22.50;;;6.90;94.10;;;5.52;96.98;97979.03;5070834;28;21094;-74
2021/11/14 01:48:17;;;;;;;35.33;22.50;;;6.90;94.10;;;5.46;97.78;97990.50;5055564;28;20952;-74
2021/11/14 01:50:45;;;;;;;27.10;20.80;;;6.90;94.10;;;5.43;97.33;97980.16;5074913;28;20538;-75
2021/11/14 01:53:13;;;;;;;29.73;23.23;;;6.80;94.50;;;5.48;97.20;97985.78;5059445;28;20934;-80
2021/11/14 01:55:43;;;;;;;32.47;22.93;;;6.90;94.00;;;5.43;97.08;97982.84;5060992;28;20460;-73
2021/11/14 01:58:13;;;;;;;31.23;23.10;;;6.80;93.50;;;5.34;96.90;97988.25;5060899;28;20472;-76
2021/11/14 02:00:45;;;;;;;29.73;22.70;;;6.80;94.10;;;5.34;97.24;97988.25;5068978;28;20450;-74
2021/11/14 02:03:13;;;;;;;28.00;21.43;;;6.80;93.90;;;5.34;96.58;97988.25;5070868;28;20490;-76
2021/11/14 02:05:41;;;;;;;29.33;20.90;;;6.80;93.80;;;5.44;96.72;97993.34;5064783;28;20472;-75
2021/11/14 02:08:10;;;;;;;31.63;23.30;;;6.80;94.10;;;5.41;96.69;97990.22;5053960;28;20504;-74
2021/11/14 02:10:38;;;;;;;31.03;22.43;;;6.80;93.80;;;5.36;97.98;97999.63;5076155;28;20449;-75
2021/11/14 02:13:08;;;;;;;28.33;22.60;;;6.70;94.70;;;5.38;97.00;98004.81;5056153;28;20462;-73
2021/11/14 02:15:36;;;;;;;28.53;21.50;;;6.70;94.30;;;5.39;97.69;98001.13;5074095;28;20522;-73
2021/11/14 02:18:06;;;;;;;30.93;21.37;;;6.70;95.00;;;5.24;97.49;97959.06;5076156;28;20948;-73
2021/11/14 02:20:35;;;;;;;31.43;21.60;;;6.80;94.50;;;5.49;96.29;98001.69;5057148;28;20472;-75
2021/11/14 02:23:04;;;;;;;31.83;21.93;;;6.90;93.50;;;5.41;96.45;97996.41;5060578;28;20460;-74
2021/11/14 02:25:32;;;;;;;26.67;20.63;;;6.80;93.30;;;5.37;97.00;98005.81;5067602;28;20453;-76
2021/11/14 02:27:59;;;;;;;26.83;20.00;;;6.80;93.60;;;5.33;96.72;97991.13;5066461;28;20465;-74
2021/11/14 02:30:27;;;;;;;32.63;20.97;;;6.70;93.90;;;5.41;97.17;97999.06;5073935;28;20468;-70
2021/11/14 02:32:56;;;;;;;28.97;20.90;;;6.80;94.00;;;5.13;96.18;97953.31;5064303;28;20713;-74
2021/11/14 02:35:25;;;;;;;31.00;21.07;;;6.80;93.60;;;5.39;96.57;98001.97;5057569;28;20453;-74
2021/11/14 02:37:53;;;;;;;27.00;19.37;;;6.80;93.70;;;5.35;97.02;98006.00;5076252;28;20492;-76
2021/11/14 02:40:21;;;;;;;28.50;20.00;;;6.80;93.60;;;5.41;96.81;97990.22;5058395;28;20534;-76
2021/11/14 02:42:50;;;;;;;28.30;19.40;;;6.80;93.90;;;5.42;96.52;97999.94;5072810;28;20465;-74
2021/11/14 02:45:20;;;;;;;29.07;20.33;;;6.80;93.80;;;5.39;97.01;98001.97;5071107;28;20612;-74
2021/11/14 02:47:48;;;;;;;27.53;19.77;;;6.80;93.70;;;5.33;96.90;98005.34;5069561;28;20465;-75
2021/11/14 02:50:17;;;;;;;25.93;19.07;;;6.80;93.60;;;5.42;96.32;98010.66;5070501;28;20555;-74
2021/11/14 02:52:45;;;;;;;28.40;19.47;;;6.80;93.80;;;5.39;96.35;98014.50;5061273;28;20465;-74
2021/11/14 02:55:20;;;;;;;30.50;20.13;;;6.80;93.80;;;5.37;96.72;98009.31;5055317;28;20510;-76
2021/11/14 02:57:47;;;;;;;28.50;18.90;;;6.80;93.80;;;5.51;96.40;98007.69;5044347;28;20557;-76
2021/11/14 03:00:22;;;;;;;30.93;19.37;;;6.80;93.70;;;5.46;95.72;98012.78;5053576;28;20457;-74
2021/11/14 03:02:50;;;;;;;36.20;20.60;;;6.80;93.40;;;5.47;96.36;98018.97;5069420;28;20462;-77
2021/11/14 03:05:20;;;;;;;31.33;20.07;;;6.80;93.30;;;5.41;96.72;98020.50;5067888;28;20460;-75
2021/11/14 03:07:50;;;;;;;29.07;19.57;;;6.80;93.70;;;5.46;96.25;98022.66;5065112;28;20522;-76
2021/11/14 03:10:23;;;;;;;29.93;20.40;;;6.80;93.60;;;5.41;97.09;98017.03;5050207;28;20508;-74
2021/11/14 03:12:57;;;;;;;26.73;19.37;;;6.80;93.90;;;5.44;96.75;98020.16;5064062;28;20457;-78
2021/11/14 03:15:25;;;;;;;25.20;18.60;;;6.80;93.50;;;5.38;96.28;98021.72;5049941;28;20552;-74
2021/11/14 03:17:52;;;;;;;26.10;17.87;;;6.80;93.40;;;5.21;96.62;98004.97;5056925;28;20453;-75
2021/11/14 03:20:19;;;;;;;30.77;19.37;;;6.70;93.90;;;5.23;97.14;98012.81;5070976;28;20572;-79
2021/11/14 03:22:46;;;;;;;29.33;19.33;;;6.70;93.90;;;5.21;97.52;98009.47;5065521;28;20510;-74
2021/11/14 03:25:14;;;;;;;33.93;19.43;;;6.70;94.40;;;5.32;96.56;98017.09;5072433;28;20488;-74
2021/11/14 03:27:43;;;;;;;31.73;19.30;;;6.70;93.60;;;5.19;96.49;98023.06;5073866;28;20477;-73
2021/11/14 03:30:11;;;;;;;34.80;19.27;;;6.70;93.70;;;5.22;96.82;98016.50;5046642;28;20466;-75
2021/11/14 03:32:40;;;;;;;27.77;18.43;;;6.70;93.90;;;5.33;97.17;98034.00;5074033;28;20544;-73
2021/11/14 03:35:08;;;;;;;27.70;17.73;;;6.70;94.40;;;5.38;96.62;98032.44;5070708;28;20510;-74
2021/11/14 03:37:35;;;;;;;24.43;17.30;;;6.70;94.10;;;5.39;96.61;98028.75;5071550;28;20555;-73
2021/11/14 03:40:06;;;;;;;26.20;18.43;;;6.80;93.60;;;5.45;96.38;98029.03;5070034;28;20963;-77
2021/11/14 03:42:33;;;;;;;25.50;18.43;;;6.80;93.60;;;5.43;96.18;98034.56;5065445;28;21014;-74
2021/11/14 03:45:02;;;;;;;23.73;16.83;;;6.80;92.70;;;5.37;95.68;98041.47;5067949;28;20543;-73
2021/11/14 03:47:29;;;;;;;18.97;15.20;;;6.80;92.80;;;5.31;96.04;98034.19;5042101;28;21048;-74
2021/11/14 03:49:56;;;;;;;25.17;17.23;;;6.70;93.00;;;5.30;96.02;98039.69;5066269;28;20466;-73
2021/11/14 03:52:23;;;;;;;26.90;16.30;;;6.70;93.30;;;5.28;95.94;98044.41;5064504;28;20454;-73
2021/11/14 03:54:50;;;;;;;22.90;16.03;;;6.70;92.90;;;5.17;96.44;98035.81;5068169;28;20460;-74
2021/11/14 03:57:17;;;;;;;23.43;15.60;;;6.60;93.20;;;5.29;96.36;98044.25;5070365;28;20514;-77
2021/11/14 03:59:44;;;;;;;29.03;16.83;;;6.70;93.20;;;5.30;95.86;98045.91;5068860;28;20459;-74
2021/11/14 04:02:13;;;;;;;23.80;15.00;;;6.70;93.10;;;5.25;96.05;98048.31;5071040;28;20549;-74
2021/11/14 04:04:40;;;;;;;22.90;15.30;;;6.60;93.10;;;5.24;96.69;98042.09;5052018;28;20545;-74
2021/11/14 04:07:07;;;;;;;23.60;15.17;;;6.70;93.30;;;5.28;96.07;98047.94;5054476;28;20459;-74
2021/11/14 04:09:34;;;;;;;24.43;15.30;;;6.60;93.00;;;5.22;96.39;98045.97;5046378;28;20565;-74
2021/11/14 04:12:03;;;;;;;25.23;15.20;;;6.60;92.80;;;5.25;96.56;98059.03;5072408;28;20492;-74
2021/11/14 04:14:30;;;;;;;22.13;14.40;;;6.60;93.10;;;5.22;95.66;98049.50;5018878;28;20513;-77
2021/11/14 04:16:57;;;;;;;20.73;14.23;;;6.60;92.90;;;5.17;96.12;98051.03;5077216;28;20478;-74
2021/11/14 04:19:26;;;;;;;22.80;15.07;;;6.60;93.10;;;5.14;96.58;98056.75;5071647;28;20461;-73
2021/11/14 04:21:54;;;;;;;23.57;14.57;;;6.60;93.20;;;5.13;96.95;98060.44;5071990;28;20449;-74
2021/11/14 04:24:21;;;;;;;24.10;16.03;;;6.50;93.30;;;5.22;96.21;98048.66;5071400;28;20487;-74
2021/11/14 04:26:48;;;;;;;22.60;13.70;;;6.60;93.30;;;5.17;96.24;98051.88;5051242;28;20452;-74
2021/11/14 04:29:15;;;;;;;20.97;14.33;;;6.60;92.90;;;5.22;95.76;98048.66;5071604;28;20549;-78
2021/11/14 04:31:42;;;;;;;20.47;13.43;;;6.60;93.00;;;5.22;95.95;98043.28;5053394;28;20457;-76
2021/11/14 04:34:09;;;;;;;24.53;14.40;;;6.60;92.80;;;5.24;95.63;98043.97;5051420;28;20467;-74
2021/11/14 04:36:37;;;;;;;26.43;14.53;;;6.60;92.80;;;5.22;95.33;98049.50;5072180;28;20519;-79
2021/11/14 04:39:06;;;;;;;18.67;13.77;;;6.60;92.60;;;5.14;95.84;98048.72;5082237;28;20879;-78
2021/11/14 04:41:33;;;;;;;21.30;14.97;;;6.60;92.70;;;5.05;96.03;98054.13;5065217;28;20527;-77
2021/11/14 04:44:00;;;;;;;22.03;13.20;;;6.50;92.80;;;5.09;96.41;98060.81;5063830;28;20457;-75
2021/11/14 04:46:27;;;;;;;18.97;13.70;;;6.50;93.20;;;5.14;95.73;98060.25;5071583;28;20504;-75
2021/11/14 04:48:54;;;;;;;24.57;15.23;;;6.50;92.90;;;5.08;95.77;98064.50;5061820;28;20510;-76
2021/11/14 04:51:22;;;;;;;23.03;15.13;;;6.50;92.90;;;5.01;95.98;98068.91;5057807;28;20449;-76
2021/11/14 04:53:50;;;;;;;18.67;13.57;;;6.50;92.50;;;5.05;95.79;98059.50;5053470;28;20454;-73
2021/11/14 04:56:17;;;;;;;21.23;13.60;;;6.50;92.60;;;4.97;95.94;98067.59;5071498;28;20493;-73
2021/11/14 04:58:45;;;;;;;18.70;11.83;;;6.40;92.80;;;4.90;96.19;98045.22;5061404;28;20515;-73
2021/11/14 05:01:12;;;;;;;18.27;12.60;;;6.40;93.10;;;4.98;95.93;98063.91;5071650;28;20474;-73
2021/11/14 05:03:39;;;;;;;19.10;13.97;;;6.40;92.80;;;4.80;96.24;98040.09;5081841;28;20481;-73
2021/11/14 05:06:08;;;;;;;19.10;11.13;;;6.40;92.80;;;5.02;95.92;98065.22;5058687;28;21035;-74
2021/11/14 05:08:36;;;;;;;16.63;12.90;;;6.40;93.10;;;4.93;96.16;98048.38;5056260;28;20453;-73
2021/11/14 05:11:04;;;;;;;22.17;12.97;;;6.40;93.30;;;5.08;95.37;98064.50;5053252;28;21907;-73
2021/11/14 05:13:31;;;;;;;16.53;12.57;;;6.50;92.90;;;5.03;95.49;98071.41;5071118;28;20538;-73
2021/11/14 05:15:58;;;;;;;19.03;12.30;;;6.50;92.60;;;5.02;96.38;98065.22;5070159;28;20571;-74
2021/11/14 05:18:26;;;;;;;21.87;14.03;;;6.40;92.80;;;4.95;96.46;98069.63;5070404;28;20484;-73
2021/11/14 05:20:53;;;;;;;19.57;12.93;;;6.40;92.60;;;5.04;96.43;98087.28;5053327;28;20457;-74
2021/11/14 05:23:20;;;;;;;19.47;12.80;;;6.40;93.00;;;4.98;95.94;98088.00;5070031;28;20461;-73
2021/11/14 05:25:47;;;;;;;16.53;11.50;;;6.40;92.80;;;5.05;96.04;98094.31;5055631;28;20476;-72
2021/11/14 05:28:17;;;;;;;20.37;13.80;;;6.40;93.10;;;5.05;95.64;98098.84;5051178;28;20481;-73
2021/11/14 05:30:44;;;;;;;19.97;13.13;;;6.40;92.80;;;5.01;96.61;98101.03;5065645;28;20525;-73
2021/11/14 05:33:11;;;;;;;17.60;11.23;;;6.40;92.90;;;4.99;96.44;98089.66;5059958;28;20515;-72
2021/11/14 05:35:39;;;;;;;17.10;11.57;;;6.40;93.30;;;5.10;96.11;98105.34;5051934;28;20552;-73
2021/11/14 05:38:06;;;;;;;18.97;11.73;;;6.50;92.90;;;5.08;95.82;98101.16;5054342;28;20518;-73
2021/11/14 05:40:34;;;;;;;18.77;12.27;;;6.50;92.50;;;5.22;95.15;98110.25;5068108;28;20550;-73
2021/11/14 05:43:02;;;;;;;20.23;13.13;;;6.60;92.20;;;5.24;95.50;98113.63;5055447;28;20469;-74
2021/11/14 05:45:30;;;;;;;21.47;13.07;;;6.60;92.30;;;5.17;95.61;98108.13;5055785;28;20500;-73
2021/11/14 05:47:57;;;;;;;24.10;12.37;;;6.60;92.00;;;5.17;95.51;98112.66;5066667;28;20496;-73
2021/11/14 05:50:26;;;;;;;21.50;12.60;;;6.60;91.90;;;5.15;95.27;98103.97;5068756;28;20457;-73
2021/11/14 05:52:53;;;;;;;16.40;10.93;;;6.60;92.00;;;5.16;95.44;98113.66;5060093;28;20453;-74
2021/11/14 05:55:21;;;;;;;19.30;11.70;;;6.60;92.00;;;5.18;95.30;98111.63;5066875;28;21085;-74
2021/11/14 05:57:53;;;;;;;23.07;13.87;;;6.60;91.90;;;5.10;94.77;98121.41;5055541;28;20531;-73
2021/11/14 06:00:25;;;;;;;18.20;11.77;;;6.50;92.10;;;5.13;95.66;98124.75;5053950;28;20457;-73
2021/11/14 06:02:59;;;;;;;18.80;12.13;;;6.50;92.30;;;5.06;96.21;98125.44;5056499;28;20541;-74
2021/11/14 06:05:28;;;;;;;20.57;12.27;;;6.50;92.60;;;5.20;95.63;98136.38;5055674;28;20462;-73
2021/11/14 06:07:55;;;;;;;26.53;13.03;;;6.60;92.40;;;5.22;95.20;98134.38;5054671;28;20972;-77
2021/11/14 06:10:22;;;;;;;21.43;12.03;;;6.60;92.40;;;5.30;94.93;98142.34;5074354;28;20514;-75
2021/11/14 06:12:49;;;;;;;18.83;12.00;;;6.60;92.10;;;5.27;94.90;98150.75;5072333;28;20540;-74
2021/11/14 06:15:20;;;;;;;21.40;13.63;;;6.60;92.30;;;5.19;95.00;98135.56;5064486;28;20787;-73
2021/11/14 06:17:47;;;;;;;19.83;12.53;;;6.60;92.00;;;5.31;94.82;98154.75;5055798;28;20441;-74
2021/11/14 06:20:17;;;;;;;16.70;11.33;;;6.60;92.30;;;5.33;94.65;98149.22;5061115;28;20467;-76
2021/11/14 06:22:44;;;;;;;21.73;12.20;;;6.70;92.20;;;5.24;95.02;98159.97;5072580;28;20556;-73
2021/11/14 06:25:11;;;;;;;20.93;13.80;;;6.60;92.20;;;5.01;95.80;98159.13;5031657;28;20466;-76
2021/11/14 06:27:39;;;;;;;23.40;12.90;;;6.60;92.20;;;5.14;95.57;98170.06;5063673;28;20518;-76
2021/11/14 06:30:11;;;;;;;23.60;13.00;;;6.60;93.00;;;4.28;95.48;98031.69;5063431;28;20506;-72
2021/11/14 06:32:38;;;;;;;22.70;12.67;;;6.60;92.40;;;5.22;95.37;98185.25;5068615;28;20465;-74
2021/11/14 06:35:07;;;;;;;22.20;13.47;;;6.60;92.20;;;5.19;95.45;98185.63;5056405;28;20511;-73
2021/11/14 06:37:36;;;;;;;20.70;12.80;;;6.60;92.90;;;5.17;96.23;98191.19;5053473;28;20523;-73
2021/11/14 06:40:04;;;;;;;24.77;14.27;;;6.60;92.70;;;5.09;95.49;98170.63;5073509;28;20863;-75
2021/11/14 06:42:31;;;;;;;25.43;13.40;;;6.60;92.60;;;5.28;94.93;98186.41;5070371;28;20507;-72
2021/11/14 06:44:58;;;;;;;23.67;14.10;;;6.70;92.30;;;5.16;95.30;98180.63;5077680;28;20460;-73
2021/11/14 06:47:26;;;;;;;22.93;14.60;;;6.60;92.50;;;5.24;94.96;98196.66;5075083;28;20537;-80
2021/11/14 06:49:53;;;;;;;28.43;14.50;;;6.60;92.40;;;5.30;95.35;98195.09;5074358;28;20958;-75
2021/11/14 06:52:22;;;;;;;23.93;14.73;;;6.70;92.60;;;5.47;95.25;98203.88;5074072;28;20471;-75
2021/11/14 06:54:52;;;;;;;20.00;14.00;;;6.80;92.60;;;5.46;94.81;98203.06;5050287;28;20449;-76
2021/11/14 06:57:20;;;;;;;23.97;13.63;;;6.90;91.80;;;5.38;93.89;98203.94;5069505;28;20833;-75
2021/11/14 06:59:50;;;;;;;22.07;13.67;;;6.90;91.20;;;5.52;94.42;98218.41;5054826;28;20450;-75
2021/11/14 07:02:18;;;;;;;25.63;14.17;;;6.90;91.00;;;5.59;94.12;98215.00;5070227;28;20465;-74
2021/11/14 07:04:45;;;;;;;19.43;13.93;;;6.90;91.40;;;5.59;93.92;98221.22;5059335;28;20478;-74
2021/11/14 07:07:12;;;;;;;31.23;14.93;;;6.90;91.00;;;5.58;93.75;98214.19;5065223;28;20444;-73
2021/11/14 07:09:40;;;;;;;22.80;13.63;;;7.00;91.00;;;5.57;93.81;98206.31;5034327;28;20549;-75
2021/11/14 07:12:10;;;;;;;26.20;15.67;;;7.00;91.10;;;5.73;93.10;98224.13;5056237;28;20544;-76
2021/11/14 07:14:38;;;;;;;22.10;13.23;;;7.10;90.80;;;5.72;93.31;98206.38;5071726;28;20449;-73
2021/11/14 07:17:05;;;;;;;23.23;14.57;;;7.10;90.60;;;5.91;92.08;98216.63;5064519;28;20548;-74
2021/11/14 07:19:35;;;;;;;23.40;14.60;;;7.20;90.00;;;5.77;92.09;98214.72;5048914;28;20457;-75
2021/11/14 07:22:03;;;;;;;21.13;13.80;;;7.20;89.60;;;5.74;92.54;98229.31;5055633;28;20476;-78
2021/11/14 07:24:31;;;;;;;26.50;14.03;;;7.10;90.20;;;6.04;91.59;98223.25;5056096;28;20454;-79
2021/11/14 07:26:58;;;;;;;23.63;15.03;;;7.30;90.20;;;5.90;92.45;98206.91;5035164;28;20595;-78
2021/11/14 07:29:27;;;;;;;19.30;13.50;;;7.30;89.90;;;5.94;91.82;98223.47;5056807;28;20510;-81
2021/11/14 07:31:54;;;;;;;19.80;14.87;;;7.30;89.70;;;6.02;92.08;98230.66;5055020;28;20477;-78
2021/11/14 07:34:23;;;;;;;21.83;13.43;;;7.30;89.80;;;6.03;91.88;98213.53;5071131;28;20518;-82
2021/11/14 07:36:51;;;;;;;25.95;16.50;;;7.30;90.20;;;6.20;91.24;98228.47;5058438;28;20465;-78
2021/11/14 07:39:18;;;;;;;22.03;14.53;;;7.40;89.70;;;6.32;90.18;98230.72;5031351;28;20876;-77
2021/11/14 07:41:45;;;;;;;20.10;13.80;;;7.60;88.60;;;6.18;90.74;98230.50;5071259;28;20460;-77
2021/11/14 07:44:12;;;;;;;22.40;15.20;;;7.50;87.70;;;6.25;90.61;98227.91;5053927;28;20446;-76
2021/11/14 07:46:41;;;;;;;24.00;15.60;;;7.50;87.80;;;6.08;90.48;98229.91;5051164;28;20498;-76
2021/11/14 07:49:08;;;;;;;22.40;15.07;;;7.50;87.00;;;6.09;91.04;98240.47;5070618;28;20465;-78
2021/11/14 07:51:35;;;;;;;25.60;16.20;;;7.50;87.20;;;6.18;90.96;98238.56;5076575;28;20516;-76
2021/11/14 07:54:04;;;;;;;24.30;15.57;;;7.50;87.50;;;6.26;90.28;98239.47;5079954;28;20464;-77
2021/11/14 07:56:32;;;;;;;20.80;14.60;;;7.60;87.20;;;6.23;89.37;98238.81;5067606;28;20515;-76
2021/11/14 07:58:59;;;;;;;25.33;15.63;;;7.60;86.10;;;6.28;89.86;98224.03;5055164;28;20603;-75
2021/11/14 08:01:26;;;;;;;25.33;16.93;;;7.60;86.90;;;6.34;89.40;98239.41;5057380;28;20453;-79
2021/11/14 08:03:55;;;;;;;22.17;16.27;;;7.70;86.30;;;6.42;89.66;98235.81;5075052;28;20441;-77
2021/11/14 08:06:22;;;;;;;24.10;15.70;;;7.80;86.20;;;6.56;88.69;98247.56;5068503;28;20456;-76
2021/11/14 08:08:50;;;;;;;24.17;16.00;;;7.80;85.60;;;6.55;88.94;98251.28;5070243;28;20548;-76
2021/11/14 08:11:18;;;;;;;21.17;15.30;;;7.90;85.30;;;6.56;89.68;98248.41;5048064;28;20458;-76
2021/11/14 08:13:45;;;;;;;24.23;15.40;;;7.90;86.30;;;6.71;89.12;98234.97;5072716;28;20485;-76
2021/11/14 08:16:13;;;;;;;23.10;14.93;;;8.00;86.20;;;7.01;87.21;98253.78;5074253;28;20540;-76
2021/11/14 08:18:40;;;;;;;19.23;15.20;;;8.20;84.70;;;7.18;86.37;98245.50;5057773;28;20461;-78
2021/11/14 08:21:08;;;;;;;25.00;15.10;;;8.30;84.30;;;7.09;86.42;98242.09;5057912;28;20468;-76
2021/11/14 08:23:35;;;;;;;21.27;14.83;;;8.50;83.60;;;7.07;86.14;98261.09;5056264;28;20881;-77
2021/11/14 08:26:03;;;;;;;19.80;14.03;;;8.50;83.20;;;7.22;85.40;98241.44;5054983;28;20948;-78
2021/11/14 08:28:31;;;;;;;22.20;15.17;;;8.60;82.90;;;7.04;86.41;98252.56;5033915;28;20449;-76
2021/11/14 08:30:58;;;;;;;21.90;14.77;;;8.50;82.90;;;7.23;86.35;98254.66;5069616;28;20468;-73
2021/11/14 08:33:25;;;;;;;21.37;14.80;;;8.50;83.50;;;7.40;86.47;98253.63;5069882;28;20940;-74
2021/11/14 08:35:53;;;;;;;23.53;14.57;;;8.60;84.00;;;7.32;86.53;98255.41;5068729;28;20515;-75
2021/11/14 08:38:21;;;;;;;23.17;16.47;;;8.60;83.60;;;7.32;86.13;98241.97;5048380;28;20475;-75
2021/11/14 08:40:49;;;;;;;23.67;16.30;;;8.70;83.40;;;7.50;85.60;98264.91;5067419;28;20449;-77
2021/11/14 08:43:16;;;;;;;47.00;25.80;;;8.70;82.80;;;7.60;86.10;98257.38;5063195;28;20453;-74
2021/11/14 08:45:43;;;;;;;22.43;16.27;;;8.80;83.40;;;7.50;86.03;98270.28;5061970;28;20584;-73
2021/11/14 08:48:10;;;;;;;24.30;14.70;;;8.70;83.20;;;7.51;85.21;98275.47;5030008;28;20536;-74
2021/11/14 08:50:38;;;;;;;21.67;14.63;;;8.80;82.50;;;7.54;85.32;98284.19;5059955;28;21334;-73
2021/11/14 08:53:05;;;;;;;22.43;15.97;;;8.80;82.70;;;7.42;85.90;98292.72;5065401;28;20465;-75
2021/11/14 08:55:34;;;;;;;20.50;14.70;;;8.70;82.80;;;7.41;85.99;98266.06;5049554;28;20478;-77
2021/11/14 08:58:01;;;;;;;26.50;16.73;;;8.70;83.00;;;7.76;85.12;98279.66;5061513;28;21292;-75
2021/11/14 09:00:33;;;;;;;24.63;16.33;;;8.90;82.90;;;7.72;85.13;98283.78;5069549;28;20882;-73
2021/11/14 09:03:02;;;;;;;21.90;16.27;;;9.00;82.80;;;7.71;85.24;98271.34;5067805;28;20461;-73
2021/11/14 09:05:32;;;;;;;23.17;16.50;;;9.10;82.60;;;7.81;85.21;98288.00;5063648;28;20458;-74
2021/11/14 09:08:02;;;;;;;25.37;15.90;;;9.10;82.60;;;8.44;82.92;98276.56;5066455;28;20925;-73
2021/11/14 09:10:30;;;;;;;25.20;15.33;;;9.50;82.30;;;8.31;82.58;98285.34;5066048;28;20508;-74
2021/11/14 09:12:59;;;;;;;22.97;15.20;;;9.60;80.90;;;8.25;82.99;98280.75;5068536;28;20457;-73
2021/11/14 09:15:29;;;;;;;21.40;15.40;;;9.60;80.80;;;8.30;82.55;98286.38;5055170;28;20831;-75
2021/11/14 09:17:57;;;;;;;24.63;16.00;;;9.60;80.80;;;8.44;82.90;98289.19;5050026;28;21015;-75
2021/11/14 09:20:26;;;;;;;21.43;14.50;;;9.70;81.00;;;8.48;82.49;98294.00;5054012;28;20454;-74
2021/11/14 09:22:53;;;;;;;20.60;13.60;;;9.80;80.30;;;8.55;82.38;98287.84;5074282;28;20448;-74
2021/11/14 09:25:22;;;;;;;22.37;15.13;;;9.90;80.50;;;8.47;82.63;98281.56;5073211;28;20526;-72
2021/11/14 09:27:50;;;;;;;26.70;15.60;;;9.90;80.10;;;8.52;82.43;98304.41;5070143;28;20453;-73
2021/11/14 09:30:20;;;;;;;19.70;14.93;;;9.80;80.10;;;8.51;82.59;98303.59;5067739;28;20479;-72
2021/11/14 09:32:48;;;;;;;20.63;14.50;;;9.80;80.50;;;8.56;81.98;98300.28;5057539;28;20457;-73
2021/11/14 09:35:16;;;;;;;24.37;15.80;;;9.80;80.30;;;8.62;82.83;98302.22;5078202;28;20464;-74
2021/11/14 09:37:43;;;;;;;23.87;15.50;;;9.80;80.70;;;8.59;82.42;98300.72;5074166;28;20514;-74
2021/11/14 09:40:11;;;;;;;22.73;15.77;;;9.80;80.20;;;8.81;82.18;98302.53;5053473;28;20849;-73
2021/11/14 09:42:39;;;;;;;19.23;13.27;;;10.00;79.20;;;9.09;80.70;98307.06;5059409;28;20456;-73
2021/11/14 09:45:08;;;;;;;20.93;14.10;;;10.10;78.80;;;9.08;80.20;98303.53;5069581;28;20491;-75
2021/11/14 09:47:39;;;;;;;19.30;13.60;;;10.20;78.00;;;8.82;79.91;98298.81;5073087;28;20497;-74
2021/11/14 09:50:08;;;;;;;18.70;13.20;;;10.20;77.50;;;8.62;80.85;98288.75;5079406;28;20555;-78
2021/11/14 09:52:36;;;;;;;19.50;13.80;;;10.10;77.90;;;8.81;80.44;98299.84;5079753;28;20460;-77
2021/11/14 09:55:06;;;;;;;21.20;14.30;;;10.10;78.00;;;8.67;81.43;98297.06;5073180;28;20502;-76
2021/11/14 09:57:33;;;;;;;18.57;12.80;;;10.00;78.10;;;8.75;81.08;98296.91;5076222;28;20453;-76
2021/11/14 10:00:00;;;;;;;21.93;14.23;;;10.00;78.10;;;8.60;81.23;98290.81;5059378;28;20454;-76
2021/11/14 10:02:27;;;;;;;16.67;12.37;;;10.10;77.90;;;8.72;81.66;98289.25;5076395;28;20939;-76
2021/11/14 10:04:56;;;;;;;16.00;12.10;;;10.00;78.10;;;8.77;81.23;98294.00;5078211;28;20951;-75
2021/11/14 10:07:23;;;;;;;17.40;12.30;;;10.00;77.70;;;8.72;80.81;98296.47;5075947;28;20450;-76
2021/11/14 10:09:53;;;;;;;17.00;11.83;;;10.00;77.80;;;8.62;81.36;98294.94;5063373;28;20464;-75
2021/11/14 10:12:23;;;;;;;17.37;12.10;;;10.00;77.80;;;8.87;80.79;98296.34;5078250;28;20502;-75
2021/11/14 10:15:04;;;;;;;14.10;9.80;;;10.10;77.90;;;8.99;79.56;98300.16;5061793;28;20458;-74
2021/11/14 10:17:32;;;;;;;16.63;12.30;;;10.10;77.40;;;8.96;79.89;98288.97;5081414;28;20459;-76
2021/11/14 10:20:12;;;;;;;14.10;10.03;;;10.30;77.20;;;8.95;79.87;98298.06;5085314;28;20481;-74
2021/11/14 10:22:43;;;;;;;14.03;10.40;;;10.20;76.90;;;8.69;81.50;98288.78;5073941;28;20456;-75